Wisconsin Dells, Wisconsin
Current Conditions -  °F | °C
As of 2:30 AM on Monday 22 Dec 2014 (Local Time) from KDLL Reporting Station
Unknown Precip Unknown Precip  
Wind Chill: 27°   Ceiling: 1100
Heat Index: 33°   Visibility: 2.5mi
Dew Point: 31°   Wind: 6mph
Humidity: 94%   Direction: 170°S
Pressure: 29.89"   Gusts: NA
Location:  43.63°N, 89.77°W
Report Text: KDLL 220830Z AUTO 17005KT 2 1/2SM UP OVC011 00/M01 A2989 RMK AO2 T00031006
Loading
Personal Weather Stations






























Interactive Weather Map New forecast layout! Learn more

10-Day Weather Forecast

Advertisements
Track Severe Weather on mobile